»·PEaware :: N55NT KSNA-KBUR

N55NT :: KSNA-KBUR

FLIGHT INFORMATION

Flight Status: Arrived
Operator: Privately registered:
United States
More flights under this callsign
Pilot: Craig H. (6968)
Aircraft: CESSNA 172 SKYHAWK
(C172)
More flights by this aircraft type
Origin: KSNA John Wayne-Orange Co
United States
Destination: KBUR Bob Hope-Burbank
United States
More flights between these airports :: More routes between these airports
Route: +SLI V23 POPPR SMO125R SMO SMO311R SILEX
File this flight plan on PilotEdge
Remarks: CSTP1
Altitude:
(Current/Filed)
4,000ft
Speed:
(Current/Filed)
110kts
Departed: 21-Jul-20 05:39 PM
Arrived: 21-Jul-20 06:28 PM
Distance/Time
Traveled:
40nm/0:49
Distance/Time
To Go:
Arrived

Flight Plot

Page will automatically refresh every two minutes.


Map Options




Map Legend


Flown Route
Filed Route
Departure Airport
Arrival Airport
Navaid (VOR, NDB)
Fix

Horizontal Profiles

Position Reports

Time Latitude Longitude Heading Altitude Ground
Speed
21-Jul-20 17:04 33.666058 -117.873025 41 59ft 0kts
21-Jul-20 17:05 33.666058 -117.873025 41 59ft 0kts
21-Jul-20 17:06 33.666058 -117.873025 41 59ft 0kts
21-Jul-20 17:07 33.666058 -117.873025 41 59ft 0kts
21-Jul-20 17:08 33.666058 -117.873025 41 59ft 0kts
21-Jul-20 17:09 33.666058 -117.873025 41 59ft 0kts
21-Jul-20 17:10 33.666058 -117.873025 41 59ft 0kts
21-Jul-20 17:11 33.666058 -117.873025 41 59ft 0kts
21-Jul-20 17:12 33.666058 -117.873025 41 59ft 0kts
21-Jul-20 17:13 33.666058 -117.873025 41 59ft 0kts
21-Jul-20 17:14 33.666058 -117.873025 41 59ft 0kts
21-Jul-20 17:15 33.666058 -117.873025 41 59ft 0kts
21-Jul-20 17:16 33.666058 -117.873025 41 59ft 0kts
21-Jul-20 17:17 33.666058 -117.873025 41 59ft 0kts
21-Jul-20 17:18 33.666058 -117.873025 41 59ft 0kts
21-Jul-20 17:19 33.666058 -117.873025 41 59ft 0kts
21-Jul-20 17:20 33.666058 -117.873025 41 59ft 0kts
21-Jul-20 17:21 33.666058 -117.873025 41 59ft 0kts
21-Jul-20 17:22 33.666058 -117.873025 41 59ft 0kts
21-Jul-20 17:23 33.666058 -117.873025 41 59ft 0kts
21-Jul-20 17:24 33.666058 -117.873025 41 59ft 0kts
21-Jul-20 17:25 33.666058 -117.873025 41 59ft 0kts
21-Jul-20 17:26 33.666058 -117.873025 41 59ft 0kts
21-Jul-20 17:27 33.666058 -117.873025 41 59ft 0kts
21-Jul-20 17:29 33.666058 -117.873025 41 59ft 0kts
21-Jul-20 17:30 33.666058 -117.873025 41 59ft 0kts
21-Jul-20 17:31 33.666058 -117.873025 41 59ft 0kts
21-Jul-20 17:32 33.666058 -117.873025 41 59ft 0kts
21-Jul-20 17:33 33.666139 -117.873002 348 59ft 0kts
21-Jul-20 17:34 33.666244 -117.873098 309 59ft 2kts
21-Jul-20 17:35 33.668348 -117.871739 42 59ft 17kts
21-Jul-20 17:36 33.671953 -117.868239 29 59ft 16kts
21-Jul-20 17:37 33.675582 -117.866153 28 59ft 14kts
21-Jul-20 17:38 33.679508 -117.863667 28 59ft 11kts
21-Jul-20 17:39 33.675360 -117.867208 210 119ft 74kts
21-Jul-20 17:40 33.659477 -117.884462 233 986ft 84kts
21-Jul-20 17:41 33.644473 -117.906953 231 1875ft 83kts
21-Jul-20 17:42 33.645653 -117.935568 299 2417ft 107kts
21-Jul-20 17:43 33.662116 -117.965318 300 3081ft 105kts
21-Jul-20 17:44 33.678169 -117.993978 300 3772ft 102kts
21-Jul-20 17:45 33.695589 -118.025015 301 4002ft 127kts
21-Jul-20 17:45 33.712682 -118.055368 301 3995ft 133kts
21-Jul-20 17:46 33.731978 -118.089631 301 3991ft 116kts
21-Jul-20 17:48 33.752625 -118.126474 300 3993ft 112kts
21-Jul-20 17:48 33.767023 -118.152438 300 3993ft 111kts
21-Jul-20 17:49 33.784344 -118.183470 300 3994ft 113kts
21-Jul-20 17:50 33.802078 -118.215150 300 3991ft 114kts
21-Jul-20 17:51 33.819905 -118.247015 300 3991ft 114kts
21-Jul-20 17:52 33.837743 -118.278926 300 3991ft 114kts
21-Jul-20 17:53 33.860662 -118.305843 316 3993ft 116kts
21-Jul-20 17:54 33.885621 -118.330930 316 3994ft 116kts
21-Jul-20 17:55 33.910514 -118.355917 316 3994ft 116kts
21-Jul-20 17:56 33.935510 -118.381023 316 3994ft 117kts
21-Jul-20 17:57 33.960481 -118.406121 317 3994ft 117kts
21-Jul-20 17:58 33.985494 -118.431282 317 3994ft 117kts
21-Jul-20 17:59 34.010453 -118.456208 322 3992ft 117kts
21-Jul-20 18:00 34.037546 -118.478318 323 3994ft 117kts
21-Jul-20 18:01 34.064794 -118.500407 323 3994ft 117kts
21-Jul-20 18:02 34.091909 -118.522393 323 3992ft 118kts
21-Jul-20 18:03 34.118868 -118.544255 322 3976ft 107kts
21-Jul-20 18:04 34.141292 -118.562475 322 3980ft 91kts
21-Jul-20 18:05 34.163525 -118.580563 322 3998ft 99kts
21-Jul-20 18:06 34.185864 -118.598716 322 3980ft 94kts
21-Jul-20 18:07 34.198703 -118.623718 272 3986ft 93kts
21-Jul-20 18:08 34.197842 -118.652922 225 3982ft 83kts
21-Jul-20 18:09 34.186556 -118.637145 61 3993ft 103kts
21-Jul-20 18:10 34.200797 -118.608276 70 3984ft 99kts
21-Jul-20 18:11 34.200413 -118.575667 95 3613ft 96kts
21-Jul-20 18:12 34.199964 -118.544079 95 3106ft 94kts
21-Jul-20 18:13 34.198907 -118.514634 103 2974ft 84kts
21-Jul-20 18:14 34.199262 -118.484022 95 2602ft 90kts
21-Jul-20 18:15 34.198920 -118.453945 95 2136ft 90kts
21-Jul-20 18:16 34.198554 -118.423561 95 1651ft 90kts
21-Jul-20 18:17 34.198214 -118.395904 96 1606ft 84kts
21-Jul-20 18:18 34.190264 -118.370614 181 1752ft 91kts
21-Jul-20 18:19 34.166651 -118.387994 211 2349ft 104kts
21-Jul-20 18:20 34.141929 -118.407234 212 2952ft 106kts
21-Jul-20 18:22 34.112643 -118.452983 336 3940ft 129kts
21-Jul-20 18:23 34.147980 -118.452580 18 3436ft 119kts
21-Jul-20 18:24 34.176032 -118.434238 37 2892ft 117kts
21-Jul-20 18:25 34.195108 -118.404054 58 2013ft 106kts
21-Jul-20 18:26 34.197879 -118.369702 87 794ft 98kts
21-Jul-20 18:27 34.198229 -118.352380 27 697ft 10kts
21-Jul-20 18:28 34.198806 -118.353101 271 699ft 5kts
21-Jul-20 18:29 34.198832 -118.356153 271 708ft 13kts
21-Jul-20 18:30 34.198918 -118.361610 271 720ft 17kts
21-Jul-20 18:31 34.200270 -118.363670 355 726ft 5kts

Navigation Log

Ident Type
Flight plan parsing failed, navigation log unavailable